Time;durP1;ratioP1;P1;durP2;ratioP2;P2;SDS_P1;SDS_P2;PMS_P1;PMS_P2;Temp;Humidity;BMP_temperature;BMP_pressure;BME280_temperature;BME280_humidity;BME280_pressure;Samples;Min_cycle;Max_cycle;Signal;HPM_P1;HPM_P2
2021/03/31 00:02:20;;;;;;;9.55;5.22;;;;;;;;;;5034128;28;20065;-71
2021/03/31 00:04:46;;;;;;;10.85;5.95;;;;;;;;;;5034491;28;20111;-71
2021/03/31 00:07:12;;;;;;;9.10;4.82;;;;;;;;;;5032634;28;20132;-71
2021/03/31 00:09:38;;;;;;;7.93;5.05;;;;;;;;;;5033361;28;20123;-71
2021/03/31 00:12:06;;;;;;;10.32;5.32;;;;;;;;;;5032349;28;20118;-71
2021/03/31 00:14:32;;;;;;;9.57;5.30;;;;;;;;;;5033862;28;20408;-71
2021/03/31 00:16:58;;;;;;;7.45;5.20;;;;;;;;;;5033582;28;20076;-71
2021/03/31 00:19:24;;;;;;;8.82;4.80;;;;;;;;;;5034104;28;20107;-71
2021/03/31 00:21:50;;;;;;;10.10;4.80;;;;;;;;;;5024257;28;20108;-71
2021/03/31 00:24:16;;;;;;;9.82;5.18;;;;;;;;;;5014547;28;20061;-71
2021/03/31 00:26:43;;;;;;;8.40;5.00;;;;;;;;;;5013583;28;20049;-71
2021/03/31 00:29:09;;;;;;;10.93;5.20;;;;;;;;;;5013993;28;20046;-71
2021/03/31 00:31:35;;;;;;;7.47;4.53;;;;;;;;;;5014366;28;20069;-71
2021/03/31 00:34:01;;;;;;;7.03;4.45;;;;;;;;;;5025154;28;20528;-71
2021/03/31 00:36:27;;;;;;;7.93;5.38;;;;;;;;;;5037066;28;20658;-71
2021/03/31 00:38:53;;;;;;;9.63;4.72;;;;;;;;;;5038039;28;20428;-71
2021/03/31 00:41:19;;;;;;;9.77;5.30;;;;;;;;;;5040635;28;20131;-69
2021/03/31 00:43:45;;;;;;;11.18;5.45;;;;;;;;;;5039809;28;20104;-70
2021/03/31 00:46:11;;;;;;;8.30;5.07;;;;;;;;;;5038495;28;20049;-70
2021/03/31 00:48:37;;;;;;;9.20;5.85;;;;;;;;;;5039977;28;20095;-70
2021/03/31 00:51:03;;;;;;;12.48;6.15;;;;;;;;;;5043794;28;20049;-71
2021/03/31 00:53:33;;;;;;;12.50;6.10;;;;;;;;;;5043595;28;20143;-70
2021/03/31 00:56:00;;;;;;;11.70;5.75;;;;;;;;;;5024021;28;20052;-71
2021/03/31 00:58:26;;;;;;;14.95;6.07;;;;;;;;;;5007300;28;20049;-71
2021/03/31 01:00:52;;;;;;;19.23;6.18;;;;;;;;;;5018331;28;20053;-71
2021/03/31 01:03:18;;;;;;;12.18;5.50;;;;;;;;;;5020549;28;20061;-70
2021/03/31 01:05:45;;;;;;;11.48;5.65;;;;;;;;;;5017818;28;20050;-71
2021/03/31 01:08:11;;;;;;;7.95;4.88;;;;;;;;;;5019252;28;20042;-71
2021/03/31 01:10:42;;;;;;;10.57;5.00;;;;;;;;;;5019908;28;20046;-70
2021/03/31 01:13:45;;;;;;;11.75;5.82;;;;;;;;;;5020304;28;20058;-70
2021/03/31 01:16:32;;;;;;;6.80;4.22;;;;;;;;;;5015240;28;20042;-71
2021/03/31 01:19:17;;;;;;;8.27;4.43;;;;;;;;;;5015873;28;20100;-69
2021/03/31 01:22:20;;;;;;;11.35;5.60;;;;;;;;;;5008113;28;20510;-71
2021/03/31 01:25:13;;;;;;;8.40;4.80;;;;;;;;;;5039993;28;20516;-71
2021/03/31 01:28:08;;;;;;;6.30;4.28;;;;;;;;;;5037091;28;20107;-70
2021/03/31 01:30:53;;;;;;;12.00;5.25;;;;;;;;;;5015634;28;20061;-71
2021/03/31 01:33:33;;;;;;;7.15;5.03;;;;;;;;;;5036151;28;20393;-71
2021/03/31 01:35:59;;;;;;;7.72;4.82;;;;;;;;;;5035656;28;20049;-71
2021/03/31 01:38:27;;;;;;;8.15;4.50;;;;;;;;;;5053199;28;20053;-71
2021/03/31 01:40:54;;;;;;;11.00;5.25;;;;;;;;;;5037900;28;20052;-71
2021/03/31 01:43:22;;;;;;;8.13;5.30;;;;;;;;;;5052791;28;20049;-71
2021/03/31 01:45:50;;;;;;;9.82;5.60;;;;;;;;;;5038520;28;20123;-71
2021/03/31 01:48:18;;;;;;;9.48;5.85;;;;;;;;;;5055355;28;20076;-71
2021/03/31 01:50:47;;;;;;;8.93;5.05;;;;;;;;;;5039603;28;20058;-71
2021/03/31 01:53:13;;;;;;;8.27;5.25;;;;;;;;;;5038882;28;20050;-71
2021/03/31 01:55:39;;;;;;;6.53;4.78;;;;;;;;;;5035882;28;20164;-71
2021/03/31 01:58:05;;;;;;;8.23;5.53;;;;;;;;;;5036656;28;20050;-71
2021/03/31 02:00:32;;;;;;;9.35;5.60;;;;;;;;;;5036064;28;20114;-71
2021/03/31 02:02:58;;;;;;;10.00;5.35;;;;;;;;;;5040195;28;20095;-71
2021/03/31 02:05:25;;;;;;;9.15;5.97;;;;;;;;;;5034976;28;20483;-71
2021/03/31 02:07:51;;;;;;;8.73;5.43;;;;;;;;;;5033823;28;20056;-71
2021/03/31 02:10:18;;;;;;;12.30;5.53;;;;;;;;;;5033877;28;20112;-71
2021/03/31 02:12:45;;;;;;;8.05;4.88;;;;;;;;;;5035590;28;20088;-71
2021/03/31 02:15:20;;;;;;;8.02;4.85;;;;;;;;;;5036802;28;20489;-71
2021/03/31 02:17:46;;;;;;;7.35;5.55;;;;;;;;;;5035640;28;20053;-69
2021/03/31 02:20:15;;;;;;;8.88;4.65;;;;;;;;;;5017449;28;20513;-71
2021/03/31 02:22:41;;;;;;;10.00;5.72;;;;;;;;;;5032586;28;20103;-71
2021/03/31 02:25:08;;;;;;;8.57;5.25;;;;;;;;;;5015991;28;20112;-71
2021/03/31 02:27:36;;;;;;;7.85;5.07;;;;;;;;;;5015788;28;20049;-71
2021/03/31 02:30:04;;;;;;;10.43;5.60;;;;;;;;;;5030716;28;20049;-71
2021/03/31 02:32:30;;;;;;;7.68;5.60;;;;;;;;;;5015129;28;20421;-70
2021/03/31 02:34:56;;;;;;;8.00;4.90;;;;;;;;;;5015231;28;20061;-71
2021/03/31 02:37:23;;;;;;;9.05;5.30;;;;;;;;;;5015164;28;20085;-71
2021/03/31 02:39:50;;;;;;;7.85;5.10;;;;;;;;;;5031673;28;20053;-71
2021/03/31 02:42:17;;;;;;;8.57;4.60;;;;;;;;;;5034204;28;20053;-71
2021/03/31 02:44:45;;;;;;;8.93;5.93;;;;;;;;;;5018670;28;20442;-71
2021/03/31 02:47:12;;;;;;;8.10;5.25;;;;;;;;;;5017269;28;20046;-71
2021/03/31 02:49:40;;;;;;;8.65;5.03;;;;;;;;;;5032877;28;20512;-70
2021/03/31 02:52:06;;;;;;;9.65;5.63;;;;;;;;;;5018045;28;20088;-71
2021/03/31 02:54:32;;;;;;;10.52;5.00;;;;;;;;;;5035703;28;20463;-71
2021/03/31 02:56:58;;;;;;;9.48;5.95;;;;;;;;;;5033546;28;20053;-71
2021/03/31 02:59:24;;;;;;;10.32;5.45;;;;;;;;;;5035051;28;20099;-71
2021/03/31 03:01:52;;;;;;;7.38;4.85;;;;;;;;;;5034365;28;20057;-71
2021/03/31 03:04:19;;;;;;;7.90;6.03;;;;;;;;;;5032784;28;20191;-71
2021/03/31 03:06:45;;;;;;;9.88;4.85;;;;;;;;;;5033900;28;20053;-70
2021/03/31 03:09:12;;;;;;;7.03;4.75;;;;;;;;;;5022681;28;20054;-71
2021/03/31 03:11:38;;;;;;;8.73;5.30;;;;;;;;;;4997334;28;20104;-71
2021/03/31 03:14:05;;;;;;;9.05;4.90;;;;;;;;;;5012096;28;20049;-71
2021/03/31 03:19:20;;;;;;;9.95;5.90;;;;;;;;;;4990450;28;20054;-60
2021/03/31 03:21:47;;;;;;;8.90;4.70;;;;;;;;;;4991281;28;20043;-60
2021/03/31 03:24:13;;;;;;;9.25;5.45;;;;;;;;;;4990796;28;20046;-60
2021/03/31 03:26:39;;;;;;;7.45;5.00;;;;;;;;;;4990880;28;20452;-60
2021/03/31 03:29:07;;;;;;;9.30;6.00;;;;;;;;;;4987440;28;20093;-60
2021/03/31 03:31:33;;;;;;;7.35;5.03;;;;;;;;;;4972953;28;20039;-60
2021/03/31 03:34:08;;;;;;;7.45;5.03;;;;;;;;;;4987706;28;20078;-60
2021/03/31 03:36:35;;;;;;;10.90;5.38;;;;;;;;;;4988721;28;20105;-60
2021/03/31 03:39:03;;;;;;;10.05;5.50;;;;;;;;;;4992173;28;20496;-60
2021/03/31 03:41:30;;;;;;;9.45;5.13;;;;;;;;;;4991395;28;20101;-60
2021/03/31 03:43:56;;;;;;;10.07;5.35;;;;;;;;;;4992376;28;20104;-60
2021/03/31 03:46:22;;;;;;;7.78;5.10;;;;;;;;;;4991326;28;20054;-60
2021/03/31 03:48:48;;;;;;;8.43;5.63;;;;;;;;;;4990895;28;20094;-60
2021/03/31 03:51:15;;;;;;;13.63;5.13;;;;;;;;;;4991591;28;20050;-60
2021/03/31 03:53:41;;;;;;;10.68;5.22;;;;;;;;;;4990984;28;20050;-60
2021/03/31 03:56:11;;;;;;;10.48;5.60;;;;;;;;;;4990326;28;20046;-60
2021/03/31 03:58:38;;;;;;;9.95;5.57;;;;;;;;;;4992136;28;20043;-60
2021/03/31 04:01:04;;;;;;;8.90;5.32;;;;;;;;;;4991813;28;20328;-60
2021/03/31 04:03:30;;;;;;;10.20;5.72;;;;;;;;;;4991885;28;20046;-60
2021/03/31 04:05:56;;;;;;;9.55;5.85;;;;;;;;;;4991276;28;20050;-60
2021/03/31 04:08:22;;;;;;;11.63;5.63;;;;;;;;;;4991890;28;20105;-60
2021/03/31 04:10:52;;;;;;;10.90;5.60;;;;;;;;;;4995046;28;20185;-60
2021/03/31 04:13:19;;;;;;;12.18;6.15;;;;;;;;;;4995400;28;20677;-60
2021/03/31 04:15:46;;;;;;;9.85;5.65;;;;;;;;;;4995235;28;20051;-61
2021/03/31 04:18:13;;;;;;;10.48;5.60;;;;;;;;;;4994087;28;20388;-60
2021/03/31 04:20:40;;;;;;;13.88;5.50;;;;;;;;;;4994533;28;20050;-60
2021/03/31 04:23:06;;;;;;;10.60;6.05;;;;;;;;;;4993896;28;20097;-60
2021/03/31 04:25:32;;;;;;;7.65;5.03;;;;;;;;;;4994856;28;20085;-60
2021/03/31 04:28:00;;;;;;;15.38;5.88;;;;;;;;;;5002439;28;20045;-60
2021/03/31 04:30:26;;;;;;;8.18;5.47;;;;;;;;;;5013646;28;20487;-60
2021/03/31 04:32:52;;;;;;;10.38;5.68;;;;;;;;;;5018688;28;20109;-60
2021/03/31 04:35:20;;;;;;;12.80;5.45;;;;;;;;;;5007639;28;20134;-60
2021/03/31 04:37:47;;;;;;;10.32;6.28;;;;;;;;;;4998156;28;20487;-60
2021/03/31 04:40:15;;;;;;;11.98;7.40;;;;;;;;;;5003949;28;20146;-61
2021/03/31 04:42:41;;;;;;;19.30;8.77;;;;;;;;;;4994027;28;20046;-62
2021/03/31 04:45:11;;;;;;;22.60;10.65;;;;;;;;;;5012500;28;20045;-60
2021/03/31 04:47:38;;;;;;;12.40;7.50;;;;;;;;;;5014597;28;20401;-60
2021/03/31 04:50:06;;;;;;;11.15;6.18;;;;;;;;;;5014321;28;20045;-61
2021/03/31 04:52:32;;;;;;;9.57;6.15;;;;;;;;;;5014391;28;20080;-60
2021/03/31 04:54:58;;;;;;;9.45;5.90;;;;;;;;;;5014866;28;20100;-60
2021/03/31 04:57:24;;;;;;;8.38;5.93;;;;;;;;;;4999632;28;20382;-60
2021/03/31 04:59:50;;;;;;;8.60;5.35;;;;;;;;;;4994486;28;20042;-60
2021/03/31 05:02:17;;;;;;;10.70;5.45;;;;;;;;;;4994105;28;20051;-60
2021/03/31 05:04:43;;;;;;;11.55;6.88;;;;;;;;;;4994543;28;20077;-60
2021/03/31 05:07:09;;;;;;;9.40;5.45;;;;;;;;;;4993535;28;20060;-60
2021/03/31 05:09:35;;;;;;;11.52;6.53;;;;;;;;;;4994681;28;20105;-60
2021/03/31 05:12:02;;;;;;;10.27;5.47;;;;;;;;;;4994750;28;20042;-60
2021/03/31 05:14:28;;;;;;;11.60;6.22;;;;;;;;;;4994450;28;20085;-60
2021/03/31 05:16:54;;;;;;;13.57;6.50;;;;;;;;;;4993524;28;20489;-60
2021/03/31 05:19:20;;;;;;;10.18;5.95;;;;;;;;;;4994201;28;20054;-60
2021/03/31 05:21:46;;;;;;;11.75;5.70;;;;;;;;;;4994115;28;20069;-60
2021/03/31 05:24:12;;;;;;;7.85;5.43;;;;;;;;;;4993199;28;20104;-60
2021/03/31 05:26:38;;;;;;;10.73;5.45;;;;;;;;;;4993758;28;20050;-60
2021/03/31 05:29:05;;;;;;;14.20;7.13;;;;;;;;;;4992891;28;20054;-60
2021/03/31 05:31:31;;;;;;;11.10;5.72;;;;;;;;;;4981571;28;20043;-61
2021/03/31 05:33:58;;;;;;;14.57;6.03;;;;;;;;;;4990960;28;20049;-62
2021/03/31 05:36:25;;;;;;;16.45;6.50;;;;;;;;;;4991051;28;20050;-62
2021/03/31 05:38:51;;;;;;;10.00;6.20;;;;;;;;;;5005610;28;20049;-61
2021/03/31 05:41:17;;;;;;;9.05;5.78;;;;;;;;;;4990450;28;20117;-62
2021/03/31 05:43:44;;;;;;;11.18;6.65;;;;;;;;;;4991472;28;20061;-61
2021/03/31 05:46:10;;;;;;;16.55;7.20;;;;;;;;;;4994170;28;20042;-61
2021/03/31 05:48:38;;;;;;;13.20;7.97;;;;;;;;;;4978187;28;20057;-61
2021/03/31 05:51:05;;;;;;;16.48;7.40;;;;;;;;;;4989403;28;20502;-61
2021/03/31 05:53:31;;;;;;;19.50;7.88;;;;;;;;;;4990866;28;20078;-61
2021/03/31 05:55:58;;;;;;;14.48;6.65;;;;;;;;;;4990537;28;20046;-61
2021/03/31 05:58:24;;;;;;;11.55;6.50;;;;;;;;;;4989160;28;20050;-61
2021/03/31 06:00:50;;;;;;;16.30;6.25;;;;;;;;;;4979435;28;20062;-61
2021/03/31 06:03:17;;;;;;;14.57;7.03;;;;;;;;;;4988997;28;20139;-61
2021/03/31 06:05:43;;;;;;;11.05;6.55;;;;;;;;;;4988954;28;21200;-61
2021/03/31 06:08:10;;;;;;;14.82;6.55;;;;;;;;;;4988844;28;20129;-61
2021/03/31 06:10:37;;;;;;;14.18;6.90;;;;;;;;;;4994296;28;20039;-60
2021/03/31 06:13:06;;;;;;;13.48;7.00;;;;;;;;;;4989781;28;20046;-61
2021/03/31 06:15:38;;;;;;;15.45;6.63;;;;;;;;;;4989373;28;20046;-60
2021/03/31 06:18:07;;;;;;;14.02;7.47;;;;;;;;;;4990087;28;20046;-60
2021/03/31 06:20:43;;;;;;;14.63;6.28;;;;;;;;;;4990333;28;20103;-61
2021/03/31 06:23:37;;;;;;;12.80;7.25;;;;;;;;;;4989933;28;20270;-61
2021/03/31 06:26:01;;;;;;;13.52;6.85;;;;;;;;;;4989279;28;20089;-61
2021/03/31 06:28:31;;;;;;;14.50;6.90;;;;;;;;;;4988879;28;20054;-60
2021/03/31 06:31:17;;;;;;;19.58;8.68;;;;;;;;;;4992531;28;20043;-61
2021/03/31 06:33:46;;;;;;;14.95;6.97;;;;;;;;;;4989315;28;20092;-61
2021/03/31 06:36:16;;;;;;;15.85;7.25;;;;;;;;;;4989257;28;20138;-60
2021/03/31 06:38:49;;;;;;;10.55;6.43;;;;;;;;;;4978840;28;20039;-61
2021/03/31 06:41:29;;;;;;;;;;;;;;;;;;4989505;28;20054;-61
2021/03/31 06:47:11;;;;;;;14.35;7.05;;;;;;;;;;4988769;28;20054;-60
2021/03/31 06:49:38;;;;;;;17.33;7.05;;;;;;;;;;4989676;28;20431;-61
2021/03/31 06:52:10;;;;;;;10.60;6.47;;;;;;;;;;4988630;28;20084;-61
2021/03/31 06:54:44;;;;;;;16.65;6.57;;;;;;;;;;4991917;28;20058;-62
2021/03/31 06:57:22;;;;;;;11.73;6.85;;;;;;;;;;4982996;28;20038;-61
2021/03/31 06:59:57;;;;;;;10.95;6.57;;;;;;;;;;4989563;28;20054;-62
2021/03/31 07:02:28;;;;;;;13.35;6.32;;;;;;;;;;4989780;28;20057;-61
2021/03/31 07:12:23;;;;;;;12.05;6.40;;;;;;;;;;5032945;23;20502;-62
2021/03/31 07:14:50;;;;;;;10.93;6.60;;;;;;;;;;5007403;28;20045;-62
2021/03/31 07:17:24;;;;;;;12.52;6.68;;;;;;;;;;5010660;28;20051;-62
2021/03/31 07:19:51;;;;;;;12.90;7.15;;;;;;;;;;5010837;28;20434;-62
2021/03/31 07:22:18;;;;;;;14.80;7.88;;;;;;;;;;5009889;28;20046;-62
2021/03/31 07:24:45;;;;;;;13.50;7.35;;;;;;;;;;5011858;28;20054;-62
2021/03/31 07:27:16;;;;;;;13.63;7.13;;;;;;;;;;5009652;28;20057;-62
2021/03/31 07:30:05;;;;;;;11.00;6.57;;;;;;;;;;5027980;28;20395;-62
2021/03/31 07:32:34;;;;;;;18.88;8.05;;;;;;;;;;5025328;28;20084;-61
2021/03/31 07:35:01;;;;;;;12.27;6.95;;;;;;;;;;5017064;28;20398;-62
2021/03/31 07:37:30;;;;;;;11.20;7.10;;;;;;;;;;5010534;28;20049;-61
2021/03/31 07:40:02;;;;;;;13.13;6.95;;;;;;;;;;5009770;28;20495;-62
2021/03/31 07:42:29;;;;;;;17.92;7.38;;;;;;;;;;5011038;28;20045;-61
2021/03/31 07:44:57;;;;;;;13.70;7.22;;;;;;;;;;4999846;28;20124;-62
2021/03/31 07:47:24;;;;;;;12.40;6.65;;;;;;;;;;5031013;28;20132;-62
2021/03/31 07:49:52;;;;;;;12.38;7.25;;;;;;;;;;5015738;28;20119;-62
2021/03/31 07:52:20;;;;;;;14.80;6.72;;;;;;;;;;5031262;28;20117;-62
2021/03/31 07:54:47;;;;;;;14.85;7.03;;;;;;;;;;5032135;28;20056;-61
2021/03/31 07:57:28;;;;;;;14.30;7.47;;;;;;;;;;5013326;28;20476;-62
2021/03/31 07:59:55;;;;;;;9.70;5.75;;;;;;;;;;5015480;28;20052;-63
2021/03/31 08:02:22;;;;;;;10.18;6.22;;;;;;;;;;5015880;28;20088;-61
2021/03/31 08:04:48;;;;;;;10.20;6.53;;;;;;;;;;5031975;28;20068;-62
2021/03/31 08:07:22;;;;;;;10.98;7.00;;;;;;;;;;5015267;28;20054;-62
2021/03/31 08:09:49;;;;;;;10.38;6.70;;;;;;;;;;5015725;28;20049;-63
2021/03/31 08:12:30;;;;;;;10.65;6.70;;;;;;;;;;5030665;28;20136;-61
2021/03/31 08:14:57;;;;;;;11.45;7.07;;;;;;;;;;5031414;28;20081;-61
2021/03/31 08:17:33;;;;;;;12.93;6.82;;;;;;;;;;5016211;28;20526;-61
2021/03/31 08:19:59;;;;;;;11.52;7.03;;;;;;;;;;5030962;28;20053;-62
2021/03/31 08:22:35;;;;;;;14.52;7.45;;;;;;;;;;5014850;28;20056;-62
2021/03/31 08:25:12;;;;;;;13.15;7.32;;;;;;;;;;5031289;28;20045;-63
2021/03/31 08:27:59;;;;;;;12.20;7.03;;;;;;;;;;5013353;28;20502;-62
2021/03/31 08:30:26;;;;;;;15.75;8.13;;;;;;;;;;5014764;28;20053;-62
2021/03/31 08:32:54;;;;;;;14.48;7.22;;;;;;;;;;5030952;28;20506;-62
2021/03/31 08:35:22;;;;;;;11.75;7.30;;;;;;;;;;5013657;28;20080;-61
2021/03/31 08:37:49;;;;;;;12.10;7.10;;;;;;;;;;5014111;28;20049;-61
2021/03/31 08:40:16;;;;;;;10.63;6.40;;;;;;;;;;5030147;28;20442;-62
2021/03/31 08:43:01;;;;;;;13.57;6.80;;;;;;;;;;5030870;28;20534;-62
2021/03/31 08:45:32;;;;;;;17.38;7.10;;;;;;;;;;5013875;28;20048;-61
2021/03/31 08:47:59;;;;;;;13.40;8.63;;;;;;;;;;5031050;28;20041;-63
2021/03/31 08:50:30;;;;;;;14.90;7.32;;;;;;;;;;5013947;28;20403;-61
2021/03/31 08:53:02;;;;;;;15.27;7.60;;;;;;;;;;5014078;28;20048;-63
2021/03/31 08:55:33;;;;;;;11.23;7.40;;;;;;;;;;5013001;28;20064;-61
2021/03/31 08:58:03;;;;;;;14.95;7.85;;;;;;;;;;5030144;28;20057;-62
2021/03/31 09:00:29;;;;;;;14.90;7.55;;;;;;;;;;5017068;28;20054;-63
2021/03/31 09:03:03;;;;;;;15.13;7.22;;;;;;;;;;5029030;28;20046;-62
2021/03/31 09:05:29;;;;;;;14.38;7.82;;;;;;;;;;5013654;28;20164;-62
2021/03/31 09:08:00;;;;;;;14.98;7.75;;;;;;;;;;5030145;28;20402;-62
2021/03/31 09:10:59;;;;;;;16.00;8.23;;;;;;;;;;5030220;28;20379;-63
2021/03/31 09:13:26;;;;;;;12.63;7.45;;;;;;;;;;5013687;28;20041;-63
2021/03/31 09:15:57;;;;;;;15.65;7.60;;;;;;;;;;5013631;28;20483;-61
2021/03/31 09:18:23;;;;;;;14.32;7.60;;;;;;;;;;5027829;28;20564;-61
2021/03/31 09:20:50;;;;;;;15.15;8.70;;;;;;;;;;5029613;28;20049;-62
2021/03/31 09:23:24;;;;;;;15.27;8.18;;;;;;;;;;5013034;28;20053;-62
2021/03/31 09:26:02;;;;;;;13.75;7.55;;;;;;;;;;5012603;28;20060;-61
2021/03/31 09:28:29;;;;;;;19.42;8.32;;;;;;;;;;5011510;28;20414;-62
2021/03/31 09:31:01;;;;;;;12.43;7.55;;;;;;;;;;5013605;28;20049;-63
2021/03/31 09:33:33;;;;;;;13.52;7.63;;;;;;;;;;5026763;28;20053;-62
2021/03/31 09:36:15;;;;;;;12.98;8.23;;;;;;;;;;4990409;28;20060;-62
2021/03/31 09:38:44;;;;;;;17.25;9.88;;;;;;;;;;5014185;28;20403;-62
2021/03/31 09:41:12;;;;;;;17.20;8.57;;;;;;;;;;5029482;28;20514;-62
2021/03/31 09:43:39;;;;;;;16.63;8.95;;;;;;;;;;5029727;28;20041;-63
2021/03/31 09:46:07;;;;;;;14.25;8.73;;;;;;;;;;5005934;28;20046;-61
2021/03/31 09:48:33;;;;;;;14.70;8.15;;;;;;;;;;5027696;28;20507;-62
2021/03/31 09:51:00;;;;;;;13.40;7.53;;;;;;;;;;5029054;28;20053;-62
2021/03/31 09:53:26;;;;;;;15.02;8.68;;;;;;;;;;4996677;28;20060;-61
2021/03/31 09:55:52;;;;;;;13.27;7.93;;;;;;;;;;5021274;28;20103;-61
2021/03/31 09:58:23;;;;;;;14.98;7.82;;;;;;;;;;5030395;28;20056;-62
2021/03/31 10:00:50;;;;;;;13.80;8.00;;;;;;;;;;5014668;28;20053;-62
2021/03/31 10:03:16;;;;;;;15.45;8.63;;;;;;;;;;4997263;28;20480;-63
2021/03/31 10:05:42;;;;;;;14.05;9.25;;;;;;;;;;4998288;28;20054;-62
2021/03/31 10:08:15;;;;;;;18.83;9.73;;;;;;;;;;5013405;28;20089;-63
2021/03/31 10:10:49;;;;;;;20.95;8.85;;;;;;;;;;4994926;28;20050;-62
2021/03/31 10:13:16;;;;;;;14.63;8.77;;;;;;;;;;4998007;23;20089;-64
2021/03/31 10:16:00;;;;;;;15.48;10.10;;;;;;;;;;5032864;23;20513;-66
2021/03/31 10:18:32;;;;;;;14.65;9.18;;;;;;;;;;5027384;28;20058;-68
2021/03/31 10:21:03;;;;;;;13.63;8.48;;;;;;;;;;5011424;28;20045;-63
2021/03/31 10:23:34;;;;;;;15.50;9.02;;;;;;;;;;5021154;28;20049;-62
2021/03/31 10:26:26;;;;;;;18.27;8.55;;;;;;;;;;5023742;28;20144;-63
2021/03/31 10:29:02;;;;;;;16.75;9.23;;;;;;;;;;5010676;28;20061;-62
2021/03/31 10:31:44;;;;;;;13.73;7.90;;;;;;;;;;5027945;28;20081;-62
2021/03/31 10:34:14;;;;;;;12.57;7.63;;;;;;;;;;5009250;28;20085;-63
2021/03/31 10:37:16;;;;;;;14.73;8.57;;;;;;;;;;5011849;28;20053;-61
2021/03/31 10:54:06;;;;;;;13.02;8.82;;;;;;;;;;5022410;28;20487;-67
2021/03/31 10:56:34;;;;;;;14.50;8.85;;;;;;;;;;5009762;28;20096;-65
2021/03/31 10:59:03;;;;;;;12.95;8.57;;;;;;;;;;5010233;28;20565;-63
2021/03/31 11:01:29;;;;;;;16.52;8.85;;;;;;;;;;5009564;28;21228;-63
2021/03/31 11:03:56;;;;;;;13.88;8.70;;;;;;;;;;5007795;28;20099;-62
2021/03/31 11:06:24;;;;;;;14.75;8.57;;;;;;;;;;5025187;28;20084;-61
2021/03/31 11:08:51;;;;;;;12.52;8.07;;;;;;;;;;5009106;28;20504;-62
2021/03/31 11:11:18;;;;;;;17.83;9.05;;;;;;;;;;5025268;28;20072;-61
2021/03/31 11:13:44;;;;;;;15.82;8.63;;;;;;;;;;5010513;28;20413;-65
2021/03/31 11:16:13;;;;;;;15.63;9.77;;;;;;;;;;5009318;28;20505;-63
2021/03/31 11:26:41;;;;;;;10.75;7.97;;;;;;;;;;5021238;28;20136;-63
2021/03/31 11:29:08;;;;;;;14.43;9.50;;;;;;;;;;5010132;28;20054;-62
2021/03/31 11:31:36;;;;;;;15.05;9.38;;;;;;;;;;5026853;28;20479;-61
2021/03/31 11:34:02;;;;;;;15.00;9.00;;;;;;;;;;5027830;28;20040;-62
2021/03/31 11:36:29;;;;;;;10.48;8.35;;;;;;;;;;5026682;28;20045;-63
2021/03/31 11:38:57;;;;;;;14.35;8.60;;;;;;;;;;5024486;28;20054;-64
2021/03/31 11:41:23;;;;;;;14.70;8.98;;;;;;;;;;4997750;28;20049;-63
2021/03/31 11:43:49;;;;;;;12.75;7.50;;;;;;;;;;5010821;28;20057;-62
2021/03/31 11:46:16;;;;;;;10.18;7.13;;;;;;;;;;5008269;28;20049;-62
2021/03/31 11:48:42;;;;;;;11.20;6.82;;;;;;;;;;5009947;28;20048;-62
2021/03/31 11:51:08;;;;;;;9.15;6.30;;;;;;;;;;5026842;28;20395;-62
2021/03/31 11:53:35;;;;;;;11.23;7.13;;;;;;;;;;5027034;28;20053;-62
2021/03/31 11:56:02;;;;;;;12.82;7.07;;;;;;;;;;5009472;28;20376;-62
2021/03/31 11:58:28;;;;;;;9.00;6.30;;;;;;;;;;5008965;28;20054;-63
2021/03/31 12:00:55;;;;;;;9.68;6.40;;;;;;;;;;5011933;28;20053;-62
2021/03/31 12:03:22;;;;;;;15.32;8.02;;;;;;;;;;5009984;28;20046;-62
2021/03/31 12:05:48;;;;;;;15.50;8.13;;;;;;;;;;5025174;28;20049;-61
2021/03/31 12:08:15;;;;;;;15.45;7.90;;;;;;;;;;5009050;28;20383;-62
2021/03/31 12:10:41;;;;;;;13.63;7.97;;;;;;;;;;5010985;28;20064;-63
2021/03/31 12:13:08;;;;;;;14.32;8.95;;;;;;;;;;5020818;28;20046;-63
2021/03/31 12:15:34;;;;;;;13.23;7.85;;;;;;;;;;5008092;28;20049;-63
2021/03/31 12:18:00;;;;;;;11.32;7.90;;;;;;;;;;5009749;28;20088;-63
2021/03/31 12:20:27;;;;;;;16.65;10.07;;;;;;;;;;5011727;28;20053;-63
2021/03/31 12:22:53;;;;;;;13.18;8.23;;;;;;;;;;5009925;28;20060;-62
2021/03/31 12:25:20;;;;;;;11.85;9.20;;;;;;;;;;5010673;28;20148;-62
2021/03/31 12:27:48;;;;;;;14.30;9.40;;;;;;;;;;5009358;28;20054;-62
2021/03/31 12:30:15;;;;;;;13.55;9.55;;;;;;;;;;5008695;28;20054;-63
2021/03/31 12:32:42;;;;;;;11.15;8.55;;;;;;;;;;5014115;28;20060;-62
2021/03/31 12:35:09;;;;;;;16.05;9.45;;;;;;;;;;5011594;28;20057;-61
2021/03/31 12:37:35;;;;;;;15.48;10.18;;;;;;;;;;5013234;28;20049;-64
2021/03/31 12:40:06;;;;;;;13.38;8.90;;;;;;;;;;5012428;28;20050;-62
2021/03/31 12:42:32;;;;;;;11.93;8.98;;;;;;;;;;5025096;28;20054;-62
2021/03/31 12:44:58;;;;;;;14.65;9.60;;;;;;;;;;5029244;28;20068;-62
2021/03/31 12:47:25;;;;;;;14.40;9.95;;;;;;;;;;5022348;28;20514;-62
2021/03/31 12:49:52;;;;;;;13.80;9.93;;;;;;;;;;5013323;28;20048;-62
2021/03/31 12:52:37;;;;;;;13.35;10.15;;;;;;;;;;5014334;28;20045;-63
2021/03/31 12:58:50;;;;;;;15.32;9.98;;;;;;;;;;5013227;23;20158;-60
2021/03/31 13:01:23;;;;;;;13.80;9.68;;;;;;;;;;5007412;28;20073;-60
2021/03/31 13:04:10;;;;;;;12.55;9.43;;;;;;;;;;5003202;28;20127;-60
2021/03/31 13:06:37;;;;;;;13.65;9.85;;;;;;;;;;5004189;28;20105;-60
2021/03/31 13:09:24;;;;;;;12.68;8.25;;;;;;;;;;5001784;28;20060;-60
2021/03/31 13:12:18;;;;;;;13.10;9.55;;;;;;;;;;5003575;28;20045;-60
2021/03/31 13:26:24;;;;;;;12.75;10.55;;;;;;;;;;5010288;28;20471;-62
2021/03/31 13:31:47;;;;;;;16.33;10.40;;;;;;;;;;5001193;28;20509;-62
2021/03/31 13:34:29;;;;;;;13.07;10.20;;;;;;;;;;5003588;28;20054;-62
2021/03/31 13:39:39;;;;;;;15.00;10.80;;;;;;;;;;5006346;28;20098;-62
2021/03/31 13:42:06;;;;;;;14.27;9.40;;;;;;;;;;5003092;28;20065;-61
2021/03/31 13:44:33;;;;;;;11.95;9.63;;;;;;;;;;5005614;28;20058;-61
2021/03/31 13:47:01;;;;;;;14.27;9.82;;;;;;;;;;5002650;28;20137;-62
2021/03/31 13:49:33;;;;;;;13.40;9.63;;;;;;;;;;5007363;28;20077;-62
2021/03/31 13:52:10;;;;;;;13.73;9.68;;;;;;;;;;5003548;28;20077;-62
2021/03/31 13:54:47;;;;;;;11.93;8.18;;;;;;;;;;5005688;28;20043;-62
2021/03/31 13:57:45;;;;;;;8.77;7.55;;;;;;;;;;5001432;28;20050;-62
2021/03/31 14:00:12;;;;;;;11.15;8.30;;;;;;;;;;5002872;28;20038;-62
2021/03/31 14:02:43;;;;;;;10.93;8.63;;;;;;;;;;4992445;28;20042;-61
2021/03/31 14:05:10;;;;;;;13.88;8.98;;;;;;;;;;5002751;28;20491;-61
2021/03/31 14:07:56;;;;;;;12.65;8.63;;;;;;;;;;5001671;28;20137;-61
2021/03/31 14:10:43;;;;;;;12.18;8.20;;;;;;;;;;5004981;28;20052;-63
2021/03/31 14:13:29;;;;;;;11.27;8.07;;;;;;;;;;5007698;28;21080;-63
2021/03/31 14:15:56;;;;;;;13.88;8.23;;;;;;;;;;5003222;28;20136;-62
2021/03/31 14:18:39;;;;;;;11.68;8.77;;;;;;;;;;5001574;28;20050;-62
2021/03/31 14:21:07;;;;;;;12.70;7.82;;;;;;;;;;5003159;28;20374;-63
2021/03/31 14:23:33;;;;;;;9.38;7.07;;;;;;;;;;5004645;28;20381;-61
2021/03/31 14:26:01;;;;;;;10.85;7.55;;;;;;;;;;5003341;28;20473;-60
2021/03/31 14:28:39;;;;;;;9.07;7.05;;;;;;;;;;5000996;28;20560;-61
2021/03/31 14:31:09;;;;;;;10.43;7.28;;;;;;;;;;5004587;28;20455;-60
2021/03/31 14:33:56;;;;;;;11.10;7.72;;;;;;;;;;5004799;28;20068;-60
2021/03/31 14:36:42;;;;;;;12.52;8.07;;;;;;;;;;5003653;28;20058;-61
2021/03/31 14:39:29;;;;;;;10.68;8.38;;;;;;;;;;5004788;28;20053;-60
2021/03/31 14:42:15;;;;;;;14.00;9.30;;;;;;;;;;5000723;28;20060;-60
2021/03/31 14:44:42;;;;;;;10.30;8.38;;;;;;;;;;4999884;28;20050;-60
2021/03/31 14:47:32;;;;;;;11.00;8.07;;;;;;;;;;5004055;28;20054;-59
2021/03/31 14:50:20;;;;;;;13.32;9.15;;;;;;;;;;5001521;28;20104;-61
2021/03/31 15:00:56;;;;;;;8.77;7.20;;;;;;;;;;5005566;28;20046;-60
2021/03/31 15:03:23;;;;;;;13.40;7.57;;;;;;;;;;5001652;28;20049;-60
2021/03/31 15:05:50;;;;;;;11.52;7.65;;;;;;;;;;5000460;28;20386;-60
2021/03/31 15:08:17;;;;;;;12.50;8.32;;;;;;;;;;5002098;28;20120;-60
2021/03/31 15:10:44;;;;;;;10.52;7.80;;;;;;;;;;5007230;28;20050;-63
2021/03/31 15:13:30;;;;;;;14.75;9.07;;;;;;;;;;5010790;28;20052;-62
2021/03/31 15:15:58;;;;;;;11.88;7.90;;;;;;;;;;5004090;28;20412;-67
2021/03/31 15:18:24;;;;;;;13.55;8.02;;;;;;;;;;5006049;28;20053;-64
2021/03/31 15:21:00;;;;;;;13.63;8.02;;;;;;;;;;5003085;28;20049;-64
2021/03/31 15:27:04;;;;;;;8.95;6.30;;;;;;;;;;4939296;28;20142;-62
2021/03/31 15:29:30;;;;;;;8.73;6.93;;;;;;;;;;4940481;28;20062;-64
2021/03/31 15:32:16;;;;;;;16.75;6.90;;;;;;;;;;4952086;28;20051;-65
2021/03/31 15:34:42;;;;;;;12.57;7.20;;;;;;;;;;4959103;28;20043;-62
2021/03/31 15:37:08;;;;;;;12.07;6.75;;;;;;;;;;4954284;28;20054;-64
2021/03/31 15:39:34;;;;;;;10.80;7.03;;;;;;;;;;4942934;28;20399;-64
2021/03/31 15:42:01;;;;;;;12.20;7.45;;;;;;;;;;4942729;28;20052;-62
2021/03/31 15:44:28;;;;;;;13.20;8.43;;;;;;;;;;4942573;28;20043;-62
2021/03/31 15:47:07;;;;;;;10.65;6.60;;;;;;;;;;4955231;28;20421;-64
2021/03/31 15:49:33;;;;;;;13.18;7.85;;;;;;;;;;4937613;28;20498;-63
2021/03/31 15:52:00;;;;;;;10.40;6.25;;;;;;;;;;4956122;28;20058;-65
2021/03/31 15:54:26;;;;;;;13.07;6.45;;;;;;;;;;4940885;28;20055;-64
2021/03/31 15:56:53;;;;;;;8.48;6.13;;;;;;;;;;4942542;28;20051;-64
2021/03/31 15:59:19;;;;;;;11.48;7.68;;;;;;;;;;4943500;28;20047;-65